createdAt,value
2022-09-04T00:00:10.666Z,24.08
2022-09-04T00:00:42.156Z,24.07
2022-09-04T00:01:13.580Z,24.06
2022-09-04T00:01:45.491Z,24.07
2022-09-04T00:02:17.037Z,24.07
2022-09-04T00:02:48.465Z,24.05
2022-09-04T00:03:19.892Z,24.06
2022-09-04T00:03:51.377Z,24.06
2022-09-04T00:04:23.006Z,24.06
2022-09-04T00:04:54.646Z,24.06
2022-09-04T00:05:26.148Z,24.05
2022-09-04T00:05:57.580Z,24.04
2022-09-04T00:06:29.012Z,24.05
2022-09-04T00:07:02.979Z,24.04
2022-09-04T00:07:34.413Z,24.04
2022-09-04T00:08:05.839Z,24.03
2022-09-04T00:08:37.264Z,24.03
2022-09-04T00:09:08.700Z,24.03
2022-09-04T00:09:40.148Z,24.01
2022-09-04T00:10:11.586Z,24.01
2022-09-04T00:10:43.024Z,24.01
2022-09-04T00:11:14.464Z,24.00
2022-09-04T00:11:45.889Z,24.01
2022-09-04T00:12:17.447Z,24.02
2022-09-04T00:12:48.880Z,24.00
2022-09-04T00:13:20.312Z,24.00
2022-09-04T00:13:51.748Z,24.01
2022-09-04T00:14:23.192Z,24.01
2022-09-04T00:14:54.612Z,24.00
2022-09-04T00:15:26.053Z,23.99
2022-09-04T00:15:57.488Z,23.97
2022-09-04T00:16:28.971Z,23.99
2022-09-04T00:17:00.512Z,23.97
2022-09-04T00:17:32.120Z,23.95
2022-09-04T00:18:03.550Z,23.97
2022-09-04T00:18:34.987Z,23.95
2022-09-04T00:19:06.415Z,23.96
2022-09-04T00:19:37.841Z,23.94
2022-09-04T00:20:09.273Z,23.95
2022-09-04T00:20:40.704Z,23.94
2022-09-04T00:21:12.138Z,23.95
2022-09-04T00:21:43.562Z,23.94
2022-09-04T00:22:14.997Z,23.96
2022-09-04T00:22:46.503Z,23.94
2022-09-04T00:23:17.930Z,23.95
2022-09-04T00:23:49.351Z,23.96
2022-09-04T00:24:20.793Z,23.96
2022-09-04T00:24:52.236Z,23.95
2022-09-04T00:25:23.673Z,23.94
2022-09-04T00:25:55.108Z,23.95
2022-09-04T00:26:26.545Z,23.93
2022-09-04T00:26:57.981Z,23.93
2022-09-04T00:27:29.411Z,23.94
2022-09-04T00:28:04.285Z,23.93
2022-09-04T00:28:35.709Z,23.93
2022-09-04T00:29:07.133Z,23.92
2022-09-04T00:29:38.559Z,23.93
2022-09-04T00:30:09.992Z,23.93
2022-09-04T00:30:41.458Z,23.92
2022-09-04T00:31:12.988Z,23.92
2022-09-04T00:31:44.491Z,23.92
2022-09-04T00:32:15.925Z,23.90
2022-09-04T00:32:47.356Z,23.90
2022-09-04T00:33:18.807Z,23.90
2022-09-04T00:33:50.233Z,23.89
2022-09-04T00:34:21.661Z,23.90
2022-09-04T00:34:53.093Z,23.89
2022-09-04T00:35:24.526Z,23.90
2022-09-04T00:35:55.961Z,23.90
2022-09-04T00:36:27.511Z,23.89
2022-09-04T00:36:58.948Z,23.87
2022-09-04T00:37:30.370Z,23.88
2022-09-04T00:38:01.900Z,23.88
2022-09-04T00:38:33.328Z,23.87
2022-09-04T00:39:04.756Z,23.87
2022-09-04T00:39:36.250Z,23.88
2022-09-04T00:40:07.712Z,23.87
2022-09-04T00:40:39.138Z,23.88
2022-09-04T00:41:10.565Z,23.88
2022-09-04T00:41:41.997Z,23.88
2022-09-04T00:42:13.419Z,23.88
2022-09-04T00:42:44.844Z,23.87
2022-09-04T00:43:16.309Z,23.88
2022-09-04T00:43:47.736Z,23.87
2022-09-04T00:44:19.296Z,23.87
2022-09-04T00:44:50.852Z,23.87
2022-09-04T00:45:22.319Z,23.86
2022-09-04T00:45:53.785Z,23.85
2022-09-04T00:46:25.254Z,23.84
2022-09-04T00:47:01.223Z,23.85
2022-09-04T00:47:32.661Z,23.85
2022-09-04T00:48:04.097Z,23.85
2022-09-04T00:48:35.556Z,23.84
2022-09-04T00:49:06.980Z,23.83
2022-09-04T00:49:38.412Z,23.83
2022-09-04T00:50:09.840Z,23.83
2022-09-04T00:50:41.268Z,23.83
2022-09-04T00:51:12.692Z,23.82
2022-09-04T00:51:44.120Z,23.82
2022-09-04T00:52:15.548Z,23.82
2022-09-04T00:52:47.433Z,23.82
2022-09-04T00:53:18.933Z,23.82
2022-09-04T00:53:50.369Z,23.81
2022-09-04T00:54:21.796Z,23.81
2022-09-04T00:54:53.224Z,23.81
2022-09-04T00:55:24.653Z,23.81
2022-09-04T00:55:56.081Z,23.80
2022-09-04T00:56:27.511Z,23.80
2022-09-04T00:56:58.958Z,23.79
2022-09-04T00:57:30.384Z,23.80
2022-09-04T00:58:01.839Z,23.80
2022-09-04T00:58:33.399Z,23.79
2022-09-04T00:59:04.830Z,23.78
2022-09-04T00:59:36.261Z,23.78
2022-09-04T01:00:07.765Z,23.78
2022-09-04T01:00:39.198Z,23.78
2022-09-04T01:01:10.730Z,23.77
2022-09-04T01:01:42.424Z,23.77
2022-09-04T01:02:14.046Z,23.77
2022-09-04T01:02:45.589Z,23.78
2022-09-04T01:03:17.022Z,23.77
2022-09-04T01:03:48.589Z,23.77
2022-09-04T01:04:20.022Z,23.77
2022-09-04T01:04:51.456Z,23.76
2022-09-04T01:05:23.120Z,23.76
2022-09-04T01:05:54.552Z,23.76
2022-09-04T01:06:25.990Z,23.75
2022-09-04T01:06:57.420Z,23.73
2022-09-04T01:07:28.853Z,23.76
2022-09-04T01:08:00.281Z,23.75
2022-09-04T01:08:31.708Z,23.73
2022-09-04T01:09:03.271Z,23.73
2022-09-04T01:09:34.705Z,23.72
2022-09-04T01:10:06.128Z,23.72
2022-09-04T01:10:37.571Z,23.72
2022-09-04T01:11:08.999Z,23.72
2022-09-04T01:11:40.441Z,23.71
2022-09-04T01:12:11.869Z,23.71
2022-09-04T01:12:43.310Z,23.71
2022-09-04T01:13:14.741Z,23.72
2022-09-04T01:13:46.158Z,23.72
2022-09-04T01:14:17.733Z,23.71
2022-09-04T01:14:52.923Z,23.70
2022-09-04T01:15:24.744Z,23.70
2022-09-04T01:15:56.179Z,23.68
2022-09-04T01:16:27.655Z,23.70
2022-09-04T01:16:59.085Z,23.68
2022-09-04T01:17:30.514Z,23.69
2022-09-04T01:18:01.941Z,23.69
2022-09-04T01:18:33.375Z,23.68
2022-09-04T01:19:04.808Z,23.68
2022-09-04T01:19:36.300Z,23.67
2022-09-04T01:20:07.732Z,23.68
2022-09-04T01:20:39.158Z,23.67
2022-09-04T01:21:10.588Z,23.68
2022-09-04T01:21:42.020Z,23.67
2022-09-04T01:22:13.473Z,23.67
2022-09-04T01:22:44.901Z,23.67
2022-09-04T01:23:16.324Z,23.66
2022-09-04T01:23:47.743Z,23.66
2022-09-04T01:24:19.227Z,23.67
2022-09-04T01:24:50.687Z,23.66
2022-09-04T01:25:22.116Z,23.66
2022-09-04T01:25:53.549Z,23.65
2022-09-04T01:26:24.989Z,23.66
2022-09-04T01:26:56.421Z,23.65
2022-09-04T01:27:27.847Z,23.65
2022-09-04T01:27:59.281Z,23.65
2022-09-04T01:28:30.708Z,23.64
2022-09-04T01:29:02.132Z,23.65
2022-09-04T01:29:33.555Z,23.64
2022-09-04T01:30:05.001Z,23.64
2022-09-04T01:30:36.424Z,23.64
2022-09-04T01:31:07.892Z,23.64
2022-09-04T01:31:39.336Z,23.64
2022-09-04T01:32:10.790Z,23.64
2022-09-04T01:32:42.221Z,23.64
2022-09-04T01:33:13.661Z,23.64
2022-09-04T01:33:45.098Z,23.63
2022-09-04T01:34:16.526Z,23.64
2022-09-04T01:34:47.956Z,23.64
2022-09-04T01:35:19.506Z,23.64
2022-09-04T01:35:50.944Z,23.63
2022-09-04T01:36:22.372Z,23.63
2022-09-04T01:36:53.805Z,23.62
2022-09-04T01:37:25.240Z,23.62
2022-09-04T01:37:56.668Z,23.63
2022-09-04T01:38:28.102Z,23.62
2022-09-04T01:38:59.533Z,23.63
2022-09-04T01:39:31.016Z,23.62
2022-09-04T01:40:02.571Z,23.62
2022-09-04T01:40:35.607Z,23.62
2022-09-04T01:41:07.614Z,23.62
2022-09-04T01:41:39.057Z,23.62
2022-09-04T01:42:10.493Z,23.62
2022-09-04T01:42:41.926Z,23.61
2022-09-04T01:43:13.360Z,23.61
2022-09-04T01:43:44.784Z,23.60
2022-09-04T01:44:16.213Z,23.59
2022-09-04T01:44:47.645Z,23.61
2022-09-04T01:45:19.128Z,23.60
2022-09-04T01:45:50.633Z,23.61
2022-09-04T01:46:22.084Z,23.59
2022-09-04T01:46:53.507Z,23.60
2022-09-04T01:47:24.941Z,23.58
2022-09-04T01:47:56.373Z,23.57
2022-09-04T01:48:27.805Z,23.57
2022-09-04T01:48:59.235Z,23.57
2022-09-04T01:49:30.662Z,23.57
2022-09-04T01:50:02.103Z,23.57
2022-09-04T01:50:33.533Z,23.56
2022-09-04T01:51:05.062Z,23.56
2022-09-04T01:51:36.492Z,23.56
2022-09-04T01:52:07.932Z,23.54
2022-09-04T01:52:39.352Z,23.54
2022-09-04T01:53:10.781Z,23.54
2022-09-04T01:53:42.249Z,23.54
2022-09-04T01:54:13.680Z,23.54
2022-09-04T01:54:45.115Z,23.54
2022-09-04T01:55:16.549Z,23.54
2022-09-04T01:55:48.005Z,23.55
2022-09-04T01:56:19.429Z,23.54
2022-09-04T01:56:50.865Z,23.53
2022-09-04T01:57:22.305Z,23.52
2022-09-04T01:57:53.741Z,23.53
2022-09-04T01:58:25.306Z,23.53
2022-09-04T01:58:56.858Z,23.53
2022-09-04T01:59:28.351Z,23.52
2022-09-04T01:59:59.794Z,23.52
2022-09-04T02:00:31.223Z,23.52
2022-09-04T02:01:05.140Z,23.52
2022-09-04T02:01:36.641Z,23.50
2022-09-04T02:02:08.164Z,23.51
2022-09-04T02:02:39.629Z,23.51
2022-09-04T02:03:11.062Z,23.49
2022-09-04T02:03:42.491Z,23.51
2022-09-04T02:04:13.917Z,23.50
2022-09-04T02:04:45.390Z,23.49
2022-09-04T02:05:16.816Z,23.49
2022-09-04T02:05:48.246Z,23.48
2022-09-04T02:06:19.941Z,23.49
2022-09-04T02:06:51.372Z,23.48
2022-09-04T02:07:22.805Z,23.47
2022-09-04T02:07:54.242Z,23.48
2022-09-04T02:08:25.763Z,23.47
2022-09-04T02:08:57.308Z,23.49
2022-09-04T02:09:28.748Z,23.48
2022-09-04T02:10:00.181Z,23.49
2022-09-04T02:10:31.608Z,23.48
2022-09-04T02:11:03.030Z,23.48
2022-09-04T02:11:35.123Z,23.48
2022-09-04T02:12:08.790Z,23.48
2022-09-04T02:12:40.266Z,23.48
2022-09-04T02:13:11.716Z,23.48
2022-09-04T02:13:43.148Z,23.48
2022-09-04T02:14:14.575Z,23.48
2022-09-04T02:14:45.996Z,23.45
2022-09-04T02:15:17.425Z,23.47
2022-09-04T02:15:48.874Z,23.46
2022-09-04T02:16:20.393Z,23.46
2022-09-04T02:16:52.026Z,23.45
2022-09-04T02:17:23.465Z,23.45
2022-09-04T02:17:54.909Z,23.44
2022-09-04T02:18:26.387Z,23.44
2022-09-04T02:18:57.818Z,23.43
2022-09-04T02:19:29.261Z,23.43
2022-09-04T02:20:00.687Z,23.43
2022-09-04T02:20:32.120Z,23.43
2022-09-04T02:21:03.555Z,23.43
2022-09-04T02:21:34.987Z,23.44
2022-09-04T02:22:06.455Z,23.43
2022-09-04T02:22:37.893Z,23.42
2022-09-04T02:23:09.327Z,23.43
2022-09-04T02:23:40.752Z,23.41
2022-09-04T02:24:12.185Z,23.39
2022-09-04T02:24:43.613Z,23.40
2022-09-04T02:25:15.051Z,23.40
2022-09-04T02:25:46.481Z,23.39
2022-09-04T02:26:17.914Z,23.39
2022-09-04T02:26:49.421Z,23.39
2022-09-04T02:27:20.875Z,23.38
2022-09-04T02:27:52.306Z,23.38
2022-09-04T02:28:23.740Z,23.38
2022-09-04T02:28:55.164Z,23.38
2022-09-04T02:29:26.597Z,23.38
2022-09-04T02:29:58.035Z,23.37
2022-09-04T02:30:29.458Z,23.36
2022-09-04T02:31:00.885Z,23.35
2022-09-04T02:31:32.382Z,23.36
2022-09-04T02:32:03.869Z,23.36
2022-09-04T02:32:36.757Z,23.36
2022-09-04T02:33:08.209Z,23.35
2022-09-04T02:33:39.638Z,23.36
2022-09-04T02:34:11.080Z,23.36
2022-09-04T02:34:42.511Z,23.34
2022-09-04T02:35:13.942Z,23.35
2022-09-04T02:35:45.389Z,23.35
2022-09-04T02:36:16.820Z,23.36
2022-09-04T02:36:50.153Z,23.35
2022-09-04T02:37:21.866Z,23.35
2022-09-04T02:37:53.374Z,23.35
2022-09-04T02:38:24.881Z,23.34
2022-09-04T02:38:56.373Z,23.34
2022-09-04T02:39:27.826Z,23.33
2022-09-04T02:39:59.324Z,23.35
2022-09-04T02:40:30.775Z,23.34
2022-09-04T02:41:02.207Z,23.34
2022-09-04T02:41:33.640Z,23.33
2022-09-04T02:42:05.071Z,23.34
2022-09-04T02:42:36.519Z,23.33
2022-09-04T02:43:08.044Z,23.32
2022-09-04T02:43:39.492Z,23.31
2022-09-04T02:44:10.930Z,23.32
2022-09-04T02:44:42.366Z,23.31
2022-09-04T02:45:13.805Z,23.31
2022-09-04T02:45:45.245Z,23.31
2022-09-04T02:46:16.725Z,23.31
2022-09-04T02:46:48.235Z,23.31
2022-09-04T02:47:19.711Z,23.30
2022-09-04T02:47:51.131Z,23.30
2022-09-04T02:48:22.634Z,23.30
2022-09-04T02:48:54.072Z,23.29
2022-09-04T02:49:25.507Z,23.29
2022-09-04T02:49:56.941Z,23.29
2022-09-04T02:50:28.372Z,23.29
2022-09-04T02:50:59.810Z,23.29
2022-09-04T02:51:31.242Z,23.29
2022-09-04T02:52:02.663Z,23.28
2022-09-04T02:52:34.085Z,23.29
2022-09-04T02:53:05.512Z,23.28
2022-09-04T02:53:36.985Z,23.27
2022-09-04T02:54:08.420Z,23.27
2022-09-04T02:54:39.847Z,23.28
2022-09-04T02:55:11.276Z,23.27
2022-09-04T02:55:42.710Z,23.27
2022-09-04T02:56:14.133Z,23.28
2022-09-04T02:56:45.557Z,23.26
2022-09-04T02:57:16.997Z,23.26
2022-09-04T02:57:48.429Z,23.27
2022-09-04T02:58:19.918Z,23.27
2022-09-04T02:58:51.416Z,23.27
2022-09-04T02:59:22.846Z,23.27
2022-09-04T02:59:54.272Z,23.27
2022-09-04T03:00:25.706Z,23.27
2022-09-04T03:00:57.194Z,23.27
2022-09-04T03:01:28.665Z,23.27
2022-09-04T03:02:00.144Z,23.27
2022-09-04T03:02:31.638Z,23.26
2022-09-04T03:03:03.089Z,23.27
2022-09-04T03:03:34.519Z,23.26
2022-09-04T03:04:06.020Z,23.25
2022-09-04T03:04:37.465Z,23.26
2022-09-04T03:05:08.893Z,23.25
2022-09-04T03:05:40.321Z,23.24
2022-09-04T03:06:11.751Z,23.25
2022-09-04T03:06:43.179Z,23.25
2022-09-04T03:07:14.610Z,23.24
2022-09-04T03:07:46.053Z,23.24
2022-09-04T03:08:17.522Z,23.23
2022-09-04T03:08:48.988Z,23.22
2022-09-04T03:09:23.067Z,23.22
2022-09-04T03:09:54.557Z,23.22
2022-09-04T03:10:25.979Z,23.21
2022-09-04T03:10:57.404Z,23.22
2022-09-04T03:11:28.829Z,23.21
2022-09-04T03:12:00.257Z,23.20
2022-09-04T03:12:31.697Z,23.19
2022-09-04T03:13:03.124Z,23.19
2022-09-04T03:13:34.552Z,23.19
2022-09-04T03:14:05.988Z,23.18
2022-09-04T03:14:37.528Z,23.18
2022-09-04T03:15:08.960Z,23.19
2022-09-04T03:15:40.389Z,23.18
2022-09-04T03:16:11.869Z,23.18
2022-09-04T03:16:43.314Z,23.19
2022-09-04T03:17:14.736Z,23.18
2022-09-04T03:17:46.168Z,23.19
2022-09-04T03:18:17.680Z,23.18
2022-09-04T03:18:49.173Z,23.18
2022-09-04T03:19:20.624Z,23.19
2022-09-04T03:19:52.098Z,23.18
2022-09-04T03:20:23.536Z,23.18
2022-09-04T03:20:54.968Z,23.17
2022-09-04T03:21:26.401Z,23.17
2022-09-04T03:21:57.849Z,23.17
2022-09-04T03:22:29.271Z,23.17
2022-09-04T03:23:00.704Z,23.17
2022-09-04T03:23:32.129Z,23.17
2022-09-04T03:24:03.556Z,23.16
2022-09-04T03:24:34.989Z,23.18
2022-09-04T03:25:06.466Z,23.17
2022-09-04T03:25:37.893Z,23.16
2022-09-04T03:26:09.325Z,23.16
2022-09-04T03:26:40.744Z,23.16
2022-09-04T03:27:12.168Z,23.14
2022-09-04T03:27:43.617Z,23.14
2022-09-04T03:28:15.064Z,23.14
2022-09-04T03:28:46.501Z,23.14
2022-09-04T03:29:17.934Z,23.14
2022-09-04T03:29:49.372Z,23.14
2022-09-04T03:30:20.934Z,23.13
2022-09-04T03:30:52.372Z,23.12
2022-09-04T03:31:23.881Z,23.13
2022-09-04T03:31:55.387Z,23.11
2022-09-04T03:32:26.840Z,23.12
2022-09-04T03:32:58.293Z,23.11
2022-09-04T03:33:29.788Z,23.11
2022-09-04T03:34:01.212Z,23.10
2022-09-04T03:34:32.640Z,23.10
2022-09-04T03:35:05.213Z,23.09
2022-09-04T03:35:36.672Z,23.09
2022-09-04T03:36:08.110Z,23.08
2022-09-04T03:36:39.540Z,23.08
2022-09-04T03:37:10.968Z,23.08
2022-09-04T03:37:42.399Z,23.09
2022-09-04T03:38:13.830Z,23.08
2022-09-04T03:38:45.270Z,23.08
2022-09-04T03:39:16.696Z,23.09
2022-09-04T03:39:48.239Z,23.08
2022-09-04T03:40:19.777Z,23.08
2022-09-04T03:40:51.221Z,23.08
2022-09-04T03:41:22.653Z,23.08
2022-09-04T03:41:54.088Z,23.08
2022-09-04T03:42:25.511Z,23.09
2022-09-04T03:42:58.559Z,23.09
2022-09-04T03:43:29.988Z,23.07
2022-09-04T03:44:01.420Z,23.06
2022-09-04T03:44:32.852Z,23.05
2022-09-04T03:45:04.281Z,23.05
2022-09-04T03:45:35.729Z,23.05
2022-09-04T03:46:07.240Z,23.05
2022-09-04T03:46:38.765Z,23.05
2022-09-04T03:47:10.225Z,23.06
2022-09-04T03:47:41.651Z,23.04
2022-09-04T03:48:14.651Z,23.05
2022-09-04T03:48:46.114Z,23.05
2022-09-04T03:49:17.543Z,23.05
2022-09-04T03:49:49.035Z,23.04
2022-09-04T03:50:20.463Z,23.05
2022-09-04T03:50:51.985Z,23.04
2022-09-04T03:51:23.412Z,23.04
2022-09-04T03:51:54.841Z,23.04
2022-09-04T03:52:26.269Z,23.04
2022-09-04T03:52:57.701Z,23.04
2022-09-04T03:53:29.143Z,23.03
2022-09-04T03:54:00.578Z,23.03
2022-09-04T03:54:32.017Z,23.03
2022-09-04T03:55:03.443Z,23.04
2022-09-04T03:55:34.873Z,23.04
2022-09-04T03:56:06.456Z,23.02
2022-09-04T03:56:37.888Z,23.03
2022-09-04T03:57:09.316Z,23.03
2022-09-04T03:57:40.761Z,23.03
2022-09-04T03:58:12.188Z,23.02
2022-09-04T03:58:43.617Z,23.02
2022-09-04T03:59:15.040Z,23.00
2022-09-04T03:59:46.467Z,23.02
2022-09-04T04:00:17.902Z,23.01
2022-09-04T04:00:49.399Z,23.01
2022-09-04T04:01:24.779Z,23.02
2022-09-04T04:01:56.481Z,23.00
2022-09-04T04:02:27.919Z,23.00
2022-09-04T04:02:59.439Z,22.99
2022-09-04T04:03:30.969Z,23.00
2022-09-04T04:04:02.461Z,22.99
2022-09-04T04:04:33.887Z,23.00
2022-09-04T04:05:05.317Z,22.98
2022-09-04T04:05:36.753Z,23.00
2022-09-04T04:06:08.260Z,22.99
2022-09-04T04:06:39.724Z,23.00
2022-09-04T04:07:11.157Z,22.98
2022-09-04T04:07:42.588Z,22.99
2022-09-04T04:08:14.018Z,22.98
2022-09-04T04:08:45.460Z,22.99
2022-09-04T04:09:16.891Z,22.97
2022-09-04T04:09:48.312Z,22.97
2022-09-04T04:10:19.741Z,22.96
2022-09-04T04:10:51.161Z,22.97
2022-09-04T04:11:22.588Z,22.95
2022-09-04T04:11:54.158Z,22.98
2022-09-04T04:12:25.585Z,22.96
2022-09-04T04:12:57.019Z,22.96
2022-09-04T04:13:28.453Z,22.96
2022-09-04T04:13:59.890Z,22.96
2022-09-04T04:14:31.349Z,22.97
2022-09-04T04:15:02.791Z,22.97
2022-09-04T04:15:34.222Z,22.97
2022-09-04T04:16:05.753Z,22.94
2022-09-04T04:16:37.235Z,22.95
2022-09-04T04:17:12.574Z,22.94
2022-09-04T04:17:44.723Z,22.94
2022-09-04T04:18:16.157Z,22.94
2022-09-04T04:18:47.579Z,22.94
2022-09-04T04:19:19.011Z,22.94
2022-09-04T04:19:50.432Z,22.93
2022-09-04T04:20:21.861Z,22.92
2022-09-04T04:20:53.288Z,22.92
2022-09-04T04:21:24.708Z,22.93
2022-09-04T04:21:56.137Z,22.93
2022-09-04T04:22:27.711Z,22.92
2022-09-04T04:22:59.141Z,22.91
2022-09-04T04:23:30.643Z,22.92
2022-09-04T04:24:02.072Z,22.92
2022-09-04T04:24:33.503Z,22.91
2022-09-04T04:25:05.021Z,22.91
2022-09-04T04:25:36.449Z,22.91
2022-09-04T04:26:07.880Z,22.92
2022-09-04T04:26:39.316Z,22.91
2022-09-04T04:27:10.740Z,22.92
2022-09-04T04:27:42.200Z,22.91
2022-09-04T04:28:13.630Z,22.91
2022-09-04T04:28:45.063Z,22.91
2022-09-04T04:29:16.497Z,22.91
2022-09-04T04:29:47.933Z,22.91
2022-09-04T04:30:19.355Z,22.90
2022-09-04T04:30:50.790Z,22.91
2022-09-04T04:31:22.310Z,22.90
2022-09-04T04:31:53.804Z,22.90
2022-09-04T04:32:25.233Z,22.90
2022-09-04T04:32:56.749Z,22.89
2022-09-04T04:33:28.178Z,22.90
2022-09-04T04:33:59.610Z,22.89
2022-09-04T04:34:31.039Z,22.88
2022-09-04T04:35:02.467Z,22.87
2022-09-04T04:35:33.906Z,22.86
2022-09-04T04:36:05.332Z,22.87
2022-09-04T04:36:36.761Z,22.86
2022-09-04T04:37:08.189Z,22.84
2022-09-04T04:37:39.625Z,22.84
2022-09-04T04:38:11.108Z,22.84
2022-09-04T04:38:42.685Z,22.84
2022-09-04T04:39:14.117Z,22.84
2022-09-04T04:39:45.612Z,22.83
2022-09-04T04:40:17.062Z,22.83
2022-09-04T04:40:48.516Z,22.83
2022-09-04T04:41:19.948Z,22.84
2022-09-04T04:41:51.385Z,22.85
2022-09-04T04:42:22.833Z,22.85
2022-09-04T04:42:54.263Z,22.85
2022-09-04T04:43:25.783Z,22.85
2022-09-04T04:43:57.212Z,22.86
2022-09-04T04:44:28.632Z,22.85
2022-09-04T04:45:00.063Z,22.84
2022-09-04T04:45:31.516Z,22.85
2022-09-04T04:46:02.949Z,22.85
2022-09-04T04:46:34.394Z,22.85
2022-09-04T04:47:05.848Z,22.85
2022-09-04T04:47:37.278Z,22.85
2022-09-04T04:48:08.709Z,22.85
2022-09-04T04:48:40.259Z,22.84
2022-09-04T04:49:11.688Z,22.85
2022-09-04T04:49:43.144Z,22.85
2022-09-04T04:50:14.581Z,22.84
2022-09-04T04:50:46.016Z,22.84
2022-09-04T04:51:17.450Z,22.85
2022-09-04T04:51:48.885Z,22.85
2022-09-04T04:52:20.318Z,22.85
2022-09-04T04:52:51.752Z,22.85
2022-09-04T04:53:23.185Z,22.85
2022-09-04T04:53:54.640Z,22.85
2022-09-04T04:54:26.069Z,22.86
2022-09-04T04:54:57.493Z,22.86
2022-09-04T04:55:28.919Z,22.86
2022-09-04T04:56:00.340Z,22.86
2022-09-04T04:56:31.769Z,22.86
2022-09-04T04:57:03.200Z,22.86
2022-09-04T04:57:34.631Z,22.86
2022-09-04T04:58:06.063Z,22.87
2022-09-04T04:58:37.488Z,22.87
2022-09-04T04:59:08.997Z,22.87
2022-09-04T04:59:40.419Z,22.87
2022-09-04T05:00:11.840Z,22.88
2022-09-04T05:00:43.274Z,22.87
2022-09-04T05:01:14.705Z,22.87
2022-09-04T05:01:46.226Z,22.87
2022-09-04T05:02:17.836Z,22.87
2022-09-04T05:02:49.407Z,22.87
2022-09-04T05:03:20.893Z,22.87
2022-09-04T05:03:52.315Z,22.88
2022-09-04T05:04:23.867Z,22.88
2022-09-04T05:04:55.293Z,22.86
2022-09-04T05:05:26.715Z,22.88
2022-09-04T05:05:58.139Z,22.88
2022-09-04T05:06:29.560Z,22.88
2022-09-04T05:07:00.989Z,22.89
2022-09-04T05:07:32.416Z,22.88
2022-09-04T05:08:08.088Z,22.89
2022-09-04T05:08:39.895Z,22.89
2022-09-04T05:09:11.329Z,22.90
2022-09-04T05:09:42.852Z,22.90
2022-09-04T05:10:14.287Z,22.90
2022-09-04T05:10:45.716Z,22.90
2022-09-04T05:11:17.160Z,22.91
2022-09-04T05:11:48.589Z,22.91
2022-09-04T05:12:20.016Z,22.90
2022-09-04T05:12:51.445Z,22.91
2022-09-04T05:13:22.879Z,22.92
2022-09-04T05:13:54.304Z,22.92
2022-09-04T05:14:25.729Z,22.92
2022-09-04T05:14:57.196Z,22.91
2022-09-04T05:15:28.620Z,22.92
2022-09-04T05:16:08.830Z,22.92
2022-09-04T05:16:41.019Z,22.92
2022-09-04T05:17:12.523Z,22.91
2022-09-04T05:17:44.256Z,22.92
2022-09-04T05:18:15.683Z,22.92
2022-09-04T05:18:47.122Z,22.92
2022-09-04T05:19:18.564Z,22.91
2022-09-04T05:19:50.301Z,22.91
2022-09-04T05:20:23.979Z,22.92
2022-09-04T05:20:55.428Z,22.92
2022-09-04T05:21:26.860Z,22.92
2022-09-04T05:21:58.291Z,22.92
2022-09-04T05:22:34.052Z,22.92
2022-09-04T05:23:05.793Z,22.92
2022-09-04T05:23:37.216Z,22.92
2022-09-04T05:24:08.649Z,22.92
2022-09-04T05:24:40.082Z,22.91
2022-09-04T05:25:11.511Z,22.91
2022-09-04T05:25:43.048Z,22.91
2022-09-04T05:26:14.479Z,22.91
2022-09-04T05:26:45.913Z,22.90
2022-09-04T05:27:17.338Z,22.91
2022-09-04T05:27:48.768Z,22.91
2022-09-04T05:28:20.293Z,22.91
2022-09-04T05:28:51.780Z,22.91
2022-09-04T05:29:23.205Z,22.91
2022-09-04T05:29:54.632Z,22.91
2022-09-04T05:30:26.064Z,22.91
2022-09-04T05:30:57.673Z,22.90
2022-09-04T05:31:29.194Z,22.90
2022-09-04T05:32:00.668Z,22.91
2022-09-04T05:32:32.110Z,22.91
2022-09-04T05:33:03.540Z,22.91
2022-09-04T05:33:34.975Z,22.90
2022-09-04T05:34:06.404Z,22.91
2022-09-04T05:34:37.832Z,22.91
2022-09-04T05:35:09.804Z,22.91
2022-09-04T05:35:41.340Z,22.92
2022-09-04T05:36:14.131Z,22.91
2022-09-04T05:36:45.556Z,22.92
2022-09-04T05:37:16.974Z,22.92
2022-09-04T05:37:48.397Z,22.92
2022-09-04T05:38:20.811Z,22.93
2022-09-04T05:38:52.489Z,22.92
2022-09-04T05:39:23.936Z,22.93
2022-09-04T05:39:55.499Z,22.92
2022-09-04T05:40:26.959Z,22.92
2022-09-04T05:40:58.520Z,22.93
2022-09-04T05:41:29.952Z,22.92
2022-09-04T05:42:06.272Z,22.92
2022-09-04T05:42:38.092Z,22.92
2022-09-04T05:43:09.520Z,22.92
2022-09-04T05:43:40.963Z,22.92
2022-09-04T05:44:12.391Z,22.91
2022-09-04T05:44:43.820Z,22.91
2022-09-04T05:45:15.260Z,22.91
2022-09-04T05:45:46.688Z,22.90
2022-09-04T05:46:18.274Z,22.90
2022-09-04T05:46:52.068Z,22.91
2022-09-04T05:47:26.497Z,22.90
2022-09-04T05:48:01.369Z,22.90
2022-09-04T05:48:32.799Z,22.90
2022-09-04T05:49:04.230Z,22.90
2022-09-04T05:49:35.659Z,22.90
2022-09-04T05:50:07.083Z,22.90
2022-09-04T05:50:38.512Z,22.91
2022-09-04T05:51:09.949Z,22.90
2022-09-04T05:51:41.428Z,22.89
2022-09-04T05:52:12.907Z,22.90
2022-09-04T05:52:44.332Z,22.90
2022-09-04T05:53:15.796Z,22.90
2022-09-04T05:53:47.237Z,22.90
2022-09-04T05:54:18.674Z,22.90
2022-09-04T05:54:50.109Z,22.89
2022-09-04T05:55:21.550Z,22.89
2022-09-04T05:55:52.978Z,22.87
2022-09-04T05:56:24.508Z,22.87
2022-09-04T05:56:55.936Z,22.87
2022-09-04T05:57:27.366Z,22.85
2022-09-04T05:57:58.796Z,22.86
2022-09-04T05:58:30.240Z,22.87
2022-09-04T05:59:01.670Z,22.87
2022-09-04T05:59:33.099Z,22.87
2022-09-04T06:00:04.532Z,22.88
2022-09-04T06:00:35.975Z,22.87
2022-09-04T06:01:07.410Z,22.88
2022-09-04T06:01:39.025Z,22.88
2022-09-04T06:02:10.623Z,22.89
2022-09-04T06:02:42.239Z,22.88
2022-09-04T06:03:13.771Z,22.90
2022-09-04T06:03:45.240Z,22.91
2022-09-04T06:04:16.668Z,22.90
2022-09-04T06:04:48.123Z,22.90
2022-09-04T06:05:19.561Z,22.90
2022-09-04T06:05:50.998Z,22.90
2022-09-04T06:06:22.436Z,22.89
2022-09-04T06:06:53.953Z,22.91
2022-09-04T06:07:25.387Z,22.90
2022-09-04T06:07:56.824Z,22.92
2022-09-04T06:08:28.929Z,22.92
2022-09-04T06:09:00.509Z,22.91
2022-09-04T06:09:31.945Z,22.90
2022-09-04T06:10:03.381Z,22.91
2022-09-04T06:10:35.359Z,22.91
2022-09-04T06:11:06.788Z,22.91
2022-09-04T06:11:38.236Z,22.91
2022-09-04T06:12:09.760Z,22.91
2022-09-04T06:12:41.189Z,22.92
2022-09-04T06:13:12.613Z,22.91
2022-09-04T06:13:44.044Z,22.91
2022-09-04T06:14:15.476Z,22.90
2022-09-04T06:14:46.921Z,22.91
2022-09-04T06:15:18.359Z,22.91
2022-09-04T06:15:49.873Z,22.92
2022-09-04T06:16:21.361Z,22.91
2022-09-04T06:16:52.920Z,22.91
2022-09-04T06:17:24.432Z,22.90
2022-09-04T06:17:55.863Z,22.91
2022-09-04T06:18:27.288Z,22.91
2022-09-04T06:18:58.715Z,22.91
2022-09-04T06:19:30.150Z,22.91
2022-09-04T06:20:01.598Z,22.92
2022-09-04T06:20:33.023Z,22.92
2022-09-04T06:21:04.457Z,22.92
2022-09-04T06:21:35.898Z,22.92
2022-09-04T06:22:07.328Z,22.91
2022-09-04T06:22:38.796Z,22.93
2022-09-04T06:23:10.219Z,22.93
2022-09-04T06:23:41.638Z,22.92
2022-09-04T06:24:13.078Z,22.93
2022-09-04T06:24:44.510Z,22.93
2022-09-04T06:25:15.940Z,22.94
2022-09-04T06:25:47.377Z,22.93
2022-09-04T06:26:18.825Z,22.95
2022-09-04T06:26:50.251Z,22.95
2022-09-04T06:27:21.679Z,22.96
2022-09-04T06:27:53.165Z,22.96
2022-09-04T06:28:24.680Z,22.96
2022-09-04T06:28:56.195Z,22.96
2022-09-04T06:29:27.624Z,22.97
2022-09-04T06:29:59.071Z,22.99
2022-09-04T06:30:30.496Z,22.99
2022-09-04T06:31:01.979Z,22.99
2022-09-04T06:31:33.508Z,23.00
2022-09-04T06:32:04.973Z,22.99
2022-09-04T06:32:36.407Z,23.00
2022-09-04T06:33:08.215Z,23.02
2022-09-04T06:33:39.665Z,23.02
2022-09-04T06:34:11.101Z,23.03
2022-09-04T06:34:42.527Z,23.04
2022-09-04T06:35:13.974Z,23.04
2022-09-04T06:35:45.400Z,23.05
2022-09-04T06:36:16.827Z,23.04
2022-09-04T06:36:48.269Z,23.06
2022-09-04T06:37:19.705Z,23.06
2022-09-04T06:37:51.146Z,23.08
2022-09-04T06:38:22.765Z,23.08
2022-09-04T06:38:54.249Z,23.09
2022-09-04T06:39:25.713Z,23.09
2022-09-04T06:39:57.320Z,23.09
2022-09-04T06:40:28.846Z,23.10
2022-09-04T06:41:00.271Z,23.11
2022-09-04T06:41:31.708Z,23.12
2022-09-04T06:42:03.128Z,23.13
2022-09-04T06:42:34.563Z,23.13
2022-09-04T06:43:05.989Z,23.14
2022-09-04T06:43:37.974Z,23.15
2022-09-04T06:44:09.517Z,23.16
2022-09-04T06:44:40.950Z,23.17
2022-09-04T06:45:12.373Z,23.18
2022-09-04T06:45:43.808Z,23.19
2022-09-04T06:46:15.297Z,23.19